Flight Track Log - Related Links

Times and Time Zones

All times are in EDT time to prevent confusion due to time zone crossing. See the N1730M flight status page for this flight to view local times or setup timezone preferences in your user account.

Time Position Orientation Groundspeed Altitude Reporting Facility
EDT Latitude Longitude Course Direction KTS MPH feet Rate Location/Type
Sun 10:06:02 PM 37.7997 -81.1325 332° Northwest 257 296 7,900  Level Indianapolis Center
Sun 10:07:03 PM 37.8039 -81.0428 87° East 258 297 10,000 1,475 Climbing Indianapolis Center
Sun 10:08:04 PM 37.8503 -80.9258 63° Northeast 332 382 10,900 2,361 Climbing Indianapolis Center
Sun 10:09:05 PM 37.8878 -80.8222 65° Northeast 334 384 14,800 3,246 Climbing Indianapolis Center
Sun 10:10:06 PM 37.9236 -80.7172 67° East 324 373 17,500 2,607 Climbing Indianapolis Center
Sun 10:11:07 PM 37.9789 -80.6133 56° Northeast 349 402 20,100 1,556 Climbing Indianapolis Center
Sun 10:12:21 PM 38.0581 -80.4850 52° Northeast 382 440 21,000 400 Climbing Washington Center
Sun 10:13:22 PM 38.1306 -80.3683 52° Northeast 422 486 21,000  Level Washington Center
Sun 10:14:25 PM 38.2011 -80.2522 52° Northeast 423 487 21,000  Level Washington Center
Sun 10:15:27 PM 38.2811 -80.1114 54° Northeast 422 486 21,000  Level Washington Center
Sun 10:16:29 PM 38.3453 -79.9883 56° Northeast 423 487 21,000  Level Washington Center
Sun 10:17:29 PM 38.4119 -79.8628 56° Northeast 435 501 21,000  Level Washington Center
Sun 10:18:30 PM 38.4511 -79.7264 70° East 428 493 21,000  Level Washington Center
Sun 10:19:33 PM 38.4872 -79.5569 75° East 422 486 21,000  Level Washington Center
Sun 10:20:35 PM 38.5144 -79.4153 76° East 422 486 21,000  Level Washington Center
Sun 10:21:35 PM 38.5428 -79.2769 75° East 421 484 21,000  Level Washington Center
Sun 10:22:38 PM 38.5694 -79.1425 76° East 395 455 21,000 -97 Level Washington Center
Sun 10:23:39 PM 38.5953 -79.0044 76° East 393 452 20,800 -1,190 Descending Washington Center
Sun 10:24:39 PM 38.6181 -78.8658 78° East 396 456 18,600 -2,177 Descending Washington Center
Sun 10:25:43 PM 38.6514 -78.7175 74° East 361 415 16,300 -2,032 Descending Washington Center
Sun 10:26:43 PM 38.6806 -78.5933 73° East 361 415 14,400 -1,884 Descending Washington Center
Sun 10:27:44 PM 38.7081 -78.4789 73° East 341 392 12,500 -1,728 Descending Washington Center
Sun 10:28:48 PM 38.7392 -78.3697 70° East 329 379 10,800 -1,584 Descending Washington Center
Sun 10:29:49 PM 38.7950 -78.2900 48° Northeast 300 345 9,200 -934 Descending Washington Center
Sun 10:30:50 PM 38.8556 -78.2131 45° Northeast 303 349 8,900 -149 Descending Washington Center
Sun 10:31:50 PM 38.9219 -78.1425 40° Northeast 306 352 8,900 -384 Level Washington Center
Sun 10:32:55 PM 38.9864 -78.0719 40° Northeast 306 352 8,100 -1,143 Descending Washington Center
Sun 10:33:56 PM 39.0503 -78.0033 40° Northeast 300 345 6,500 -1,672 Descending Washington Center
Sun 10:34:57 PM 39.1258 -77.9217 40° Northeast 296 341 4,700 -1,525 Descending Washington Center
Sun 10:35:58 PM 39.1569 -77.8250 67° East 298 343 3,400 -836 Descending Washington Center
Sun 10:36:59 PM 39.1806 -77.7228 73° East 298 343 3,000 -192 Descending Washington Center
Sun 10:38:03 PM 39.2044 -77.6206 73° East 298 343 3,000  Level Washington Center
Sun 10:39:03 PM 39.1842 -77.5311 106° East 281 323 3,000 49 Level Washington Center
Sun 10:40:06 PM 39.1419 -77.4611 128° Southeast 259 298 3,100 -238 Climbing Washington Center
Sun 10:41:09 PM 39.0833 -77.4500 172° South 191 220 2,500 -780 Descending Potomac TRACON
Sun 10:42:09 PM 39.0333 -77.4667 195° South 148 170 1,500 -762 Descending Potomac TRACON
Sun 10:43:15 PM 39.0000 -77.4667 180° South 104 120 900 -545 Descending Potomac TRACON
Sun 10:46:00 PM 38.9474 -77.4599 165° South  Level Estimated
Sun 10:53:00 PM 38.9474 -77.4599 165° South  Level Estimated

Login

Don't have an account? Register now (free) for customized features, flight alerts, and more!